<?xml version="1.0" encoding="UTF-8" standalone="no" ?>
<gpx xmlns="http://www.topografix.com/GPX/1/1" xmlns:xsi="http://www.w3.org/2001/XMLSchema-instance" xsi:schemaLocation="http://www.topografix.com/GPX/1/1 http://www.topografix.com/GPX/1/1/gpx.xsd" version="1.1" creator="VisuGPX - https://www.visugpx.com">
  <metadata>
    <name>La flo la flo</name>
    <desc><![CDATA[Une belle balade dans le haut bocage]]></desc>
  </metadata>
  <trk>
    <name><![CDATA[14677151-la flo la flo]]></name>
    <trkseg>
      <trkpt lat="46.82864" lon="-0.87469">
        <ele>236</ele>
        <time>2022-05-04T05:59:37Z</time>
      </trkpt>
      <trkpt lat="46.82846" lon="-0.87439">
        <ele>235</ele>
        <time>2022-05-04T05:59:59Z</time>
      </trkpt>
      <trkpt lat="46.82833" lon="-0.87413">
        <ele>234</ele>
        <time>2022-05-04T06:00:16Z</time>
      </trkpt>
      <trkpt lat="46.82803" lon="-0.87445">
        <ele>234</ele>
        <time>2022-05-04T06:00:46Z</time>
      </trkpt>
      <trkpt lat="46.82787" lon="-0.8748">
        <ele>234</ele>
        <time>2022-05-04T06:01:09Z</time>
      </trkpt>
      <trkpt lat="46.82776" lon="-0.87493">
        <ele>235</ele>
        <time>2022-05-04T06:01:21Z</time>
      </trkpt>
      <trkpt lat="46.82761" lon="-0.87527">
        <ele>235</ele>
        <time>2022-05-04T06:01:43Z</time>
      </trkpt>
      <trkpt lat="46.8273" lon="-0.87531">
        <ele>237</ele>
        <time>2022-05-04T06:02:08Z</time>
      </trkpt>
      <trkpt lat="46.82724" lon="-0.87495">
        <ele>237</ele>
        <time>2022-05-04T06:02:28Z</time>
      </trkpt>
      <trkpt lat="46.82726" lon="-0.87458">
        <ele>236</ele>
        <time>2022-05-04T06:02:48Z</time>
      </trkpt>
      <trkpt lat="46.82724" lon="-0.87437">
        <ele>235</ele>
        <time>2022-05-04T06:03:00Z</time>
      </trkpt>
      <trkpt lat="46.82717" lon="-0.87411">
        <ele>235</ele>
        <time>2022-05-04T06:03:15Z</time>
      </trkpt>
      <trkpt lat="46.82709" lon="-0.87392">
        <ele>235</ele>
        <time>2022-05-04T06:03:27Z</time>
      </trkpt>
      <trkpt lat="46.82704" lon="-0.8737">
        <ele>234</ele>
        <time>2022-05-04T06:03:40Z</time>
      </trkpt>
      <trkpt lat="46.82695" lon="-0.87364">
        <ele>234</ele>
        <time>2022-05-04T06:03:48Z</time>
      </trkpt>
      <trkpt lat="46.82667" lon="-0.87379">
        <ele>239</ele>
        <time>2022-05-04T06:04:12Z</time>
      </trkpt>
      <trkpt lat="46.82649" lon="-0.87387">
        <ele>243</ele>
        <time>2022-05-04T06:04:27Z</time>
      </trkpt>
      <trkpt lat="46.82629" lon="-0.87398">
        <ele>248</ele>
        <time>2022-05-04T06:04:44Z</time>
      </trkpt>
      <trkpt lat="46.82616" lon="-0.87394">
        <ele>250</ele>
        <time>2022-05-04T06:04:55Z</time>
      </trkpt>
      <trkpt lat="46.82593" lon="-0.87396">
        <ele>254</ele>
        <time>2022-05-04T06:05:13Z</time>
      </trkpt>
      <trkpt lat="46.82579" lon="-0.874">
        <ele>257</ele>
        <time>2022-05-04T06:05:25Z</time>
      </trkpt>
      <trkpt lat="46.82574" lon="-0.87411">
        <ele>258</ele>
        <time>2022-05-04T06:05:32Z</time>
      </trkpt>
      <trkpt lat="46.82574" lon="-0.87441">
        <ele>260</ele>
        <time>2022-05-04T06:05:48Z</time>
      </trkpt>
      <trkpt lat="46.82569" lon="-0.87478">
        <ele>262</ele>
        <time>2022-05-04T06:06:09Z</time>
      </trkpt>
      <trkpt lat="46.82567" lon="-0.87503">
        <ele>263</ele>
        <time>2022-05-04T06:06:23Z</time>
      </trkpt>
      <trkpt lat="46.82561" lon="-0.87488">
        <ele>263</ele>
        <time>2022-05-04T06:06:32Z</time>
      </trkpt>
      <trkpt lat="46.82555" lon="-0.87471">
        <ele>262</ele>
        <time>2022-05-04T06:06:43Z</time>
      </trkpt>
      <trkpt lat="46.82547" lon="-0.8746">
        <ele>262</ele>
        <time>2022-05-04T06:06:52Z</time>
      </trkpt>
      <trkpt lat="46.82532" lon="-0.87448">
        <ele>262</ele>
        <time>2022-05-04T06:07:05Z</time>
      </trkpt>
      <trkpt lat="46.82526" lon="-0.87433">
        <ele>262</ele>
        <time>2022-05-04T06:07:15Z</time>
      </trkpt>
      <trkpt lat="46.82527" lon="-0.874">
        <ele>260</ele>
        <time>2022-05-04T06:07:33Z</time>
      </trkpt>
      <trkpt lat="46.8252" lon="-0.87377">
        <ele>258</ele>
        <time>2022-05-04T06:07:47Z</time>
      </trkpt>
      <trkpt lat="46.82517" lon="-0.87349">
        <ele>256</ele>
        <time>2022-05-04T06:08:02Z</time>
      </trkpt>
      <trkpt lat="46.82508" lon="-0.87323">
        <ele>254</ele>
        <time>2022-05-04T06:08:18Z</time>
      </trkpt>
      <trkpt lat="46.825" lon="-0.87299">
        <ele>251</ele>
        <time>2022-05-04T06:08:33Z</time>
      </trkpt>
      <trkpt lat="46.82494" lon="-0.87269">
        <ele>247</ele>
        <time>2022-05-04T06:08:50Z</time>
      </trkpt>
      <trkpt lat="46.82479" lon="-0.87269">
        <ele>247</ele>
        <time>2022-05-04T06:09:02Z</time>
      </trkpt>
      <trkpt lat="46.82458" lon="-0.87269">
        <ele>248</ele>
        <time>2022-05-04T06:09:19Z</time>
      </trkpt>
      <trkpt lat="46.82422" lon="-0.87267">
        <ele>248</ele>
        <time>2022-05-04T06:09:48Z</time>
      </trkpt>
      <trkpt lat="46.82408" lon="-0.87239">
        <ele>245</ele>
        <time>2022-05-04T06:10:07Z</time>
      </trkpt>
      <trkpt lat="46.82398" lon="-0.87222">
        <ele>243</ele>
        <time>2022-05-04T06:10:19Z</time>
      </trkpt>
      <trkpt lat="46.82379" lon="-0.87216">
        <ele>243</ele>
        <time>2022-05-04T06:10:34Z</time>
      </trkpt>
      <trkpt lat="46.82367" lon="-0.87209">
        <ele>243</ele>
        <time>2022-05-04T06:10:45Z</time>
      </trkpt>
      <trkpt lat="46.82348" lon="-0.87194">
        <ele>242</ele>
        <time>2022-05-04T06:11:02Z</time>
      </trkpt>
      <trkpt lat="46.82332" lon="-0.87169">
        <ele>241</ele>
        <time>2022-05-04T06:11:21Z</time>
      </trkpt>
      <trkpt lat="46.82325" lon="-0.87132">
        <ele>233</ele>
        <time>2022-05-04T06:11:42Z</time>
      </trkpt>
      <trkpt lat="46.82307" lon="-0.87096">
        <ele>225</ele>
        <time>2022-05-04T06:12:06Z</time>
      </trkpt>
      <trkpt lat="46.82287" lon="-0.87061">
        <ele>220</ele>
        <time>2022-05-04T06:12:31Z</time>
      </trkpt>
      <trkpt lat="46.82266" lon="-0.8704">
        <ele>218</ele>
        <time>2022-05-04T06:12:52Z</time>
      </trkpt>
      <trkpt lat="46.82226" lon="-0.86973">
        <ele>215</ele>
        <time>2022-05-04T06:13:40Z</time>
      </trkpt>
      <trkpt lat="46.82184" lon="-0.86833">
        <ele>212</ele>
        <time>2022-05-04T06:15:04Z</time>
      </trkpt>
      <trkpt lat="46.82105" lon="-0.86687">
        <ele>211</ele>
        <time>2022-05-04T06:16:46Z</time>
      </trkpt>
      <trkpt lat="46.82296" lon="-0.8653">
        <ele>217</ele>
        <time>2022-05-04T06:19:42Z</time>
      </trkpt>
      <trkpt lat="46.82259" lon="-0.86507">
        <ele>217</ele>
        <time>2022-05-04T06:20:14Z</time>
      </trkpt>
      <trkpt lat="46.82245" lon="-0.86501">
        <ele>217</ele>
        <time>2022-05-04T06:20:25Z</time>
      </trkpt>
      <trkpt lat="46.82226" lon="-0.86485">
        <ele>216</ele>
        <time>2022-05-04T06:20:43Z</time>
      </trkpt>
      <trkpt lat="46.82206" lon="-0.86462">
        <ele>214</ele>
        <time>2022-05-04T06:21:03Z</time>
      </trkpt>
      <trkpt lat="46.82188" lon="-0.86451">
        <ele>213</ele>
        <time>2022-05-04T06:21:19Z</time>
      </trkpt>
      <trkpt lat="46.82172" lon="-0.86442">
        <ele>212</ele>
        <time>2022-05-04T06:21:33Z</time>
      </trkpt>
      <trkpt lat="46.82139" lon="-0.8644">
        <ele>210</ele>
        <time>2022-05-04T06:21:59Z</time>
      </trkpt>
      <trkpt lat="46.8211" lon="-0.86437">
        <ele>207</ele>
        <time>2022-05-04T06:22:22Z</time>
      </trkpt>
      <trkpt lat="46.82082" lon="-0.86435">
        <ele>205</ele>
        <time>2022-05-04T06:22:45Z</time>
      </trkpt>
      <trkpt lat="46.82003" lon="-0.86462">
        <ele>207</ele>
        <time>2022-05-04T06:23:50Z</time>
      </trkpt>
      <trkpt lat="46.81972" lon="-0.8647">
        <ele>209</ele>
        <time>2022-05-04T06:24:15Z</time>
      </trkpt>
      <trkpt lat="46.81953" lon="-0.86479">
        <ele>210</ele>
        <time>2022-05-04T06:24:31Z</time>
      </trkpt>
      <trkpt lat="46.81921" lon="-0.86485">
        <ele>213</ele>
        <time>2022-05-04T06:24:57Z</time>
      </trkpt>
      <trkpt lat="46.81898" lon="-0.86491">
        <ele>215</ele>
        <time>2022-05-04T06:25:16Z</time>
      </trkpt>
      <trkpt lat="46.81898" lon="-0.86491">
        <ele>215</ele>
        <time>2022-05-04T06:25:16Z</time>
      </trkpt>
      <trkpt lat="46.81853" lon="-0.86478">
        <ele>217</ele>
        <time>2022-05-04T06:25:52Z</time>
      </trkpt>
      <trkpt lat="46.81828" lon="-0.86474">
        <ele>218</ele>
        <time>2022-05-04T06:26:12Z</time>
      </trkpt>
      <trkpt lat="46.81808" lon="-0.86461">
        <ele>218</ele>
        <time>2022-05-04T06:26:30Z</time>
      </trkpt>
      <trkpt lat="46.81781" lon="-0.86449">
        <ele>218</ele>
        <time>2022-05-04T06:26:53Z</time>
      </trkpt>
      <trkpt lat="46.81753" lon="-0.86444">
        <ele>219</ele>
        <time>2022-05-04T06:27:15Z</time>
      </trkpt>
      <trkpt lat="46.81727" lon="-0.86433">
        <ele>218</ele>
        <time>2022-05-04T06:27:37Z</time>
      </trkpt>
      <trkpt lat="46.81664" lon="-0.86425">
        <ele>219</ele>
        <time>2022-05-04T06:28:27Z</time>
      </trkpt>
      <trkpt lat="46.81596" lon="-0.86431">
        <ele>224</ele>
        <time>2022-05-04T06:29:22Z</time>
      </trkpt>
      <trkpt lat="46.81593" lon="-0.86397">
        <ele>223</ele>
        <time>2022-05-04T06:29:41Z</time>
      </trkpt>
      <trkpt lat="46.81586" lon="-0.86368">
        <ele>223</ele>
        <time>2022-05-04T06:29:58Z</time>
      </trkpt>
      <trkpt lat="46.81579" lon="-0.86338">
        <ele>222</ele>
        <time>2022-05-04T06:30:15Z</time>
      </trkpt>
      <trkpt lat="46.8157" lon="-0.86313">
        <ele>222</ele>
        <time>2022-05-04T06:30:30Z</time>
      </trkpt>
      <trkpt lat="46.81558" lon="-0.86279">
        <ele>222</ele>
        <time>2022-05-04T06:30:51Z</time>
      </trkpt>
      <trkpt lat="46.8155" lon="-0.86248">
        <ele>222</ele>
        <time>2022-05-04T06:31:10Z</time>
      </trkpt>
      <trkpt lat="46.81547" lon="-0.86216">
        <ele>223</ele>
        <time>2022-05-04T06:31:27Z</time>
      </trkpt>
      <trkpt lat="46.81547" lon="-0.86177">
        <ele>224</ele>
        <time>2022-05-04T06:31:49Z</time>
      </trkpt>
      <trkpt lat="46.81549" lon="-0.86136">
        <ele>226</ele>
        <time>2022-05-04T06:32:11Z</time>
      </trkpt>
      <trkpt lat="46.8155" lon="-0.86103">
        <ele>228</ele>
        <time>2022-05-04T06:32:29Z</time>
      </trkpt>
      <trkpt lat="46.81458" lon="-0.86158">
        <ele>231</ele>
        <time>2022-05-04T06:33:49Z</time>
      </trkpt>
      <trkpt lat="46.81319" lon="-0.86381">
        <ele>229</ele>
        <time>2022-05-04T06:36:34Z</time>
      </trkpt>
      <trkpt lat="46.81284" lon="-0.86346">
        <ele>229</ele>
        <time>2022-05-04T06:37:08Z</time>
      </trkpt>
      <trkpt lat="46.81255" lon="-0.86302">
        <ele>228</ele>
        <time>2022-05-04T06:37:42Z</time>
      </trkpt>
      <trkpt lat="46.81229" lon="-0.86271">
        <ele>226</ele>
        <time>2022-05-04T06:38:08Z</time>
      </trkpt>
      <trkpt lat="46.8121" lon="-0.86244">
        <ele>224</ele>
        <time>2022-05-04T06:38:30Z</time>
      </trkpt>
      <trkpt lat="46.81197" lon="-0.86219">
        <ele>223</ele>
        <time>2022-05-04T06:38:47Z</time>
      </trkpt>
      <trkpt lat="46.81182" lon="-0.86186">
        <ele>221</ele>
        <time>2022-05-04T06:39:09Z</time>
      </trkpt>
      <trkpt lat="46.81164" lon="-0.86153">
        <ele>219</ele>
        <time>2022-05-04T06:39:32Z</time>
      </trkpt>
      <trkpt lat="46.81146" lon="-0.86128">
        <ele>217</ele>
        <time>2022-05-04T06:39:52Z</time>
      </trkpt>
      <trkpt lat="46.81126" lon="-0.86104">
        <ele>215</ele>
        <time>2022-05-04T06:40:12Z</time>
      </trkpt>
      <trkpt lat="46.81113" lon="-0.86073">
        <ele>215</ele>
        <time>2022-05-04T06:40:32Z</time>
      </trkpt>
      <trkpt lat="46.81105" lon="-0.86043">
        <ele>215</ele>
        <time>2022-05-04T06:40:50Z</time>
      </trkpt>
      <trkpt lat="46.81094" lon="-0.86001">
        <ele>216</ele>
        <time>2022-05-04T06:41:15Z</time>
      </trkpt>
      <trkpt lat="46.81085" lon="-0.85965">
        <ele>216</ele>
        <time>2022-05-04T06:41:36Z</time>
      </trkpt>
      <trkpt lat="46.81067" lon="-0.85948">
        <ele>216</ele>
        <time>2022-05-04T06:41:53Z</time>
      </trkpt>
      <trkpt lat="46.81047" lon="-0.85933">
        <ele>216</ele>
        <time>2022-05-04T06:42:11Z</time>
      </trkpt>
      <trkpt lat="46.81022" lon="-0.85928">
        <ele>216</ele>
        <time>2022-05-04T06:42:31Z</time>
      </trkpt>
      <trkpt lat="46.81004" lon="-0.85884">
        <ele>217</ele>
        <time>2022-05-04T06:42:59Z</time>
      </trkpt>
      <trkpt lat="46.80978" lon="-0.8584">
        <ele>216</ele>
        <time>2022-05-04T06:43:31Z</time>
      </trkpt>
      <trkpt lat="46.81009" lon="-0.8579">
        <ele>217</ele>
        <time>2022-05-04T06:44:08Z</time>
      </trkpt>
      <trkpt lat="46.81079" lon="-0.85719">
        <ele>220</ele>
        <time>2022-05-04T06:45:16Z</time>
      </trkpt>
      <trkpt lat="46.81162" lon="-0.85629">
        <ele>220</ele>
        <time>2022-05-04T06:46:39Z</time>
      </trkpt>
      <trkpt lat="46.81244" lon="-0.8553">
        <ele>219</ele>
        <time>2022-05-04T06:48:04Z</time>
      </trkpt>
      <trkpt lat="46.81295" lon="-0.85451">
        <ele>224</ele>
        <time>2022-05-04T06:49:03Z</time>
      </trkpt>
      <trkpt lat="46.81339" lon="-0.85389">
        <ele>226</ele>
        <time>2022-05-04T06:49:52Z</time>
      </trkpt>
      <trkpt lat="46.81543" lon="-0.85315">
        <ele>224</ele>
        <time>2022-05-04T06:52:41Z</time>
      </trkpt>
      <trkpt lat="46.81578" lon="-0.85324">
        <ele>224</ele>
        <time>2022-05-04T06:53:09Z</time>
      </trkpt>
      <trkpt lat="46.81635" lon="-0.85307">
        <ele>223</ele>
        <time>2022-05-04T06:53:56Z</time>
      </trkpt>
      <trkpt lat="46.81708" lon="-0.85297">
        <ele>221</ele>
        <time>2022-05-04T06:54:54Z</time>
      </trkpt>
      <trkpt lat="46.81759" lon="-0.85319">
        <ele>221</ele>
        <time>2022-05-04T06:55:37Z</time>
      </trkpt>
      <trkpt lat="46.81809" lon="-0.85368">
        <ele>219</ele>
        <time>2022-05-04T06:56:25Z</time>
      </trkpt>
      <trkpt lat="46.81873" lon="-0.85421">
        <ele>218</ele>
        <time>2022-05-04T06:57:24Z</time>
      </trkpt>
      <trkpt lat="46.81973" lon="-0.85499">
        <ele>215</ele>
        <time>2022-05-04T06:58:55Z</time>
      </trkpt>
      <trkpt lat="46.82065" lon="-0.85532">
        <ele>207</ele>
        <time>2022-05-04T07:00:11Z</time>
      </trkpt>
      <trkpt lat="46.8224" lon="-0.85532">
        <ele>200</ele>
        <time>2022-05-04T07:02:31Z</time>
      </trkpt>
      <trkpt lat="46.82383" lon="-0.85545">
        <ele>193</ele>
        <time>2022-05-04T07:04:26Z</time>
      </trkpt>
      <trkpt lat="46.82486" lon="-0.85576">
        <ele>188</ele>
        <time>2022-05-04T07:05:50Z</time>
      </trkpt>
      <trkpt lat="46.82518" lon="-0.85583">
        <ele>187</ele>
        <time>2022-05-04T07:06:16Z</time>
      </trkpt>
      <trkpt lat="46.82569" lon="-0.85588">
        <ele>185</ele>
        <time>2022-05-04T07:06:57Z</time>
      </trkpt>
      <trkpt lat="46.82609" lon="-0.85578">
        <ele>186</ele>
        <time>2022-05-04T07:07:29Z</time>
      </trkpt>
      <trkpt lat="46.82651" lon="-0.85574">
        <ele>187</ele>
        <time>2022-05-04T07:08:03Z</time>
      </trkpt>
      <trkpt lat="46.82676" lon="-0.85587">
        <ele>189</ele>
        <time>2022-05-04T07:08:24Z</time>
      </trkpt>
      <trkpt lat="46.82703" lon="-0.85595">
        <ele>190</ele>
        <time>2022-05-04T07:08:46Z</time>
      </trkpt>
      <trkpt lat="46.82727" lon="-0.85608">
        <ele>191</ele>
        <time>2022-05-04T07:09:07Z</time>
      </trkpt>
      <trkpt lat="46.82731" lon="-0.85618">
        <ele>191</ele>
        <time>2022-05-04T07:09:13Z</time>
      </trkpt>
      <trkpt lat="46.82723" lon="-0.85656">
        <ele>191</ele>
        <time>2022-05-04T07:09:35Z</time>
      </trkpt>
      <trkpt lat="46.82707" lon="-0.85702">
        <ele>190</ele>
        <time>2022-05-04T07:10:03Z</time>
      </trkpt>
      <trkpt lat="46.82701" lon="-0.85738">
        <ele>190</ele>
        <time>2022-05-04T07:10:23Z</time>
      </trkpt>
      <trkpt lat="46.82698" lon="-0.85763">
        <ele>190</ele>
        <time>2022-05-04T07:10:37Z</time>
      </trkpt>
      <trkpt lat="46.8269" lon="-0.85781">
        <ele>190</ele>
        <time>2022-05-04T07:10:49Z</time>
      </trkpt>
      <trkpt lat="46.82666" lon="-0.85808">
        <ele>190</ele>
        <time>2022-05-04T07:11:13Z</time>
      </trkpt>
      <trkpt lat="46.82651" lon="-0.85823">
        <ele>190</ele>
        <time>2022-05-04T07:11:28Z</time>
      </trkpt>
      <trkpt lat="46.82643" lon="-0.85849">
        <ele>191</ele>
        <time>2022-05-04T07:11:43Z</time>
      </trkpt>
      <trkpt lat="46.82639" lon="-0.85874">
        <ele>191</ele>
        <time>2022-05-04T07:11:57Z</time>
      </trkpt>
      <trkpt lat="46.82626" lon="-0.85907">
        <ele>192</ele>
        <time>2022-05-04T07:12:18Z</time>
      </trkpt>
      <trkpt lat="46.82624" lon="-0.85929">
        <ele>192</ele>
        <time>2022-05-04T07:12:30Z</time>
      </trkpt>
      <trkpt lat="46.82627" lon="-0.85977">
        <ele>192</ele>
        <time>2022-05-04T07:12:57Z</time>
      </trkpt>
      <trkpt lat="46.82697" lon="-0.85969">
        <ele>196</ele>
        <time>2022-05-04T07:13:53Z</time>
      </trkpt>
      <trkpt lat="46.82809" lon="-0.8603">
        <ele>202</ele>
        <time>2022-05-04T07:15:29Z</time>
      </trkpt>
      <trkpt lat="46.8287" lon="-0.86068">
        <ele>204</ele>
        <time>2022-05-04T07:16:22Z</time>
      </trkpt>
      <trkpt lat="46.82933" lon="-0.86094">
        <ele>206</ele>
        <time>2022-05-04T07:17:14Z</time>
      </trkpt>
      <trkpt lat="46.83012" lon="-0.86104">
        <ele>210</ele>
        <time>2022-05-04T07:18:18Z</time>
      </trkpt>
      <trkpt lat="46.83019" lon="-0.86142">
        <ele>209</ele>
        <time>2022-05-04T07:18:39Z</time>
      </trkpt>
      <trkpt lat="46.83015" lon="-0.86191">
        <ele>209</ele>
        <time>2022-05-04T07:19:06Z</time>
      </trkpt>
      <trkpt lat="46.82982" lon="-0.86224">
        <ele>208</ele>
        <time>2022-05-04T07:19:38Z</time>
      </trkpt>
      <trkpt lat="46.82963" lon="-0.86252">
        <ele>208</ele>
        <time>2022-05-04T07:20:00Z</time>
      </trkpt>
      <trkpt lat="46.82954" lon="-0.8627">
        <ele>208</ele>
        <time>2022-05-04T07:20:12Z</time>
      </trkpt>
      <trkpt lat="46.82943" lon="-0.86288">
        <ele>208</ele>
        <time>2022-05-04T07:20:25Z</time>
      </trkpt>
      <trkpt lat="46.82921" lon="-0.86311">
        <ele>208</ele>
        <time>2022-05-04T07:20:47Z</time>
      </trkpt>
      <trkpt lat="46.82896" lon="-0.86328">
        <ele>208</ele>
        <time>2022-05-04T07:21:09Z</time>
      </trkpt>
      <trkpt lat="46.82884" lon="-0.86341">
        <ele>208</ele>
        <time>2022-05-04T07:21:21Z</time>
      </trkpt>
      <trkpt lat="46.829" lon="-0.86395">
        <ele>210</ele>
        <time>2022-05-04T07:21:53Z</time>
      </trkpt>
      <trkpt lat="46.8295" lon="-0.86428">
        <ele>212</ele>
        <time>2022-05-04T07:22:37Z</time>
      </trkpt>
      <trkpt lat="46.82964" lon="-0.86476">
        <ele>213</ele>
        <time>2022-05-04T07:23:06Z</time>
      </trkpt>
      <trkpt lat="46.82942" lon="-0.8651">
        <ele>214</ele>
        <time>2022-05-04T07:23:31Z</time>
      </trkpt>
      <trkpt lat="46.82909" lon="-0.8655">
        <ele>216</ele>
        <time>2022-05-04T07:24:06Z</time>
      </trkpt>
      <trkpt lat="46.82891" lon="-0.86573">
        <ele>216</ele>
        <time>2022-05-04T07:24:25Z</time>
      </trkpt>
      <trkpt lat="46.82842" lon="-0.86604">
        <ele>217</ele>
        <time>2022-05-04T07:25:08Z</time>
      </trkpt>
      <trkpt lat="46.8283" lon="-0.86622">
        <ele>217</ele>
        <time>2022-05-04T07:25:21Z</time>
      </trkpt>
      <trkpt lat="46.82769" lon="-0.86739">
        <ele>215</ele>
        <time>2022-05-04T07:26:42Z</time>
      </trkpt>
      <trkpt lat="46.82758" lon="-0.86767">
        <ele>215</ele>
        <time>2022-05-04T07:27:00Z</time>
      </trkpt>
      <trkpt lat="46.82715" lon="-0.86841">
        <ele>213</ele>
        <time>2022-05-04T07:27:53Z</time>
      </trkpt>
      <trkpt lat="46.82708" lon="-0.8688">
        <ele>213</ele>
        <time>2022-05-04T07:28:15Z</time>
      </trkpt>
      <trkpt lat="46.82713" lon="-0.86925">
        <ele>214</ele>
        <time>2022-05-04T07:28:40Z</time>
      </trkpt>
      <trkpt lat="46.82696" lon="-0.86946">
        <ele>214</ele>
        <time>2022-05-04T07:28:58Z</time>
      </trkpt>
      <trkpt lat="46.82675" lon="-0.86997">
        <ele>214</ele>
        <time>2022-05-04T07:29:30Z</time>
      </trkpt>
      <trkpt lat="46.82645" lon="-0.87048">
        <ele>215</ele>
        <time>2022-05-04T07:30:07Z</time>
      </trkpt>
      <trkpt lat="46.8262" lon="-0.87076">
        <ele>216</ele>
        <time>2022-05-04T07:30:32Z</time>
      </trkpt>
      <trkpt lat="46.82601" lon="-0.87073">
        <ele>216</ele>
        <time>2022-05-04T07:30:48Z</time>
      </trkpt>
      <trkpt lat="46.82542" lon="-0.87022">
        <ele>214</ele>
        <time>2022-05-04T07:31:43Z</time>
      </trkpt>
      <trkpt lat="46.82491" lon="-0.86994">
        <ele>213</ele>
        <time>2022-05-04T07:32:26Z</time>
      </trkpt>
      <trkpt lat="46.82469" lon="-0.87007">
        <ele>213</ele>
        <time>2022-05-04T07:32:45Z</time>
      </trkpt>
      <trkpt lat="46.82409" lon="-0.87033">
        <ele>215</ele>
        <time>2022-05-04T07:33:35Z</time>
      </trkpt>
      <trkpt lat="46.82373" lon="-0.87053">
        <ele>217</ele>
        <time>2022-05-04T07:34:06Z</time>
      </trkpt>
      <trkpt lat="46.82355" lon="-0.87068">
        <ele>220</ele>
        <time>2022-05-04T07:34:23Z</time>
      </trkpt>
      <trkpt lat="46.82311" lon="-0.87051">
        <ele>219</ele>
        <time>2022-05-04T07:34:59Z</time>
      </trkpt>
      <trkpt lat="46.82263" lon="-0.87028">
        <ele>217</ele>
        <time>2022-05-04T07:35:40Z</time>
      </trkpt>
      <trkpt lat="46.82327" lon="-0.87099">
        <ele>226</ele>
        <time>2022-05-04T07:36:44Z</time>
      </trkpt>
      <trkpt lat="46.82353" lon="-0.8717">
        <ele>240</ele>
        <time>2022-05-04T07:37:28Z</time>
      </trkpt>
      <trkpt lat="46.82397" lon="-0.87214">
        <ele>242</ele>
        <time>2022-05-04T07:38:11Z</time>
      </trkpt>
      <trkpt lat="46.82434" lon="-0.8726">
        <ele>247</ele>
        <time>2022-05-04T07:38:50Z</time>
      </trkpt>
      <trkpt lat="46.82497" lon="-0.87255">
        <ele>245</ele>
        <time>2022-05-04T07:39:40Z</time>
      </trkpt>
      <trkpt lat="46.82523" lon="-0.87344">
        <ele>255</ele>
        <time>2022-05-04T07:40:33Z</time>
      </trkpt>
      <trkpt lat="46.82554" lon="-0.87449">
        <ele>261</ele>
        <time>2022-05-04T07:41:36Z</time>
      </trkpt>
      <trkpt lat="46.82563" lon="-0.87405">
        <ele>258</ele>
        <time>2022-05-04T07:42:01Z</time>
      </trkpt>
      <trkpt lat="46.82626" lon="-0.8738">
        <ele>247</ele>
        <time>2022-05-04T07:42:53Z</time>
      </trkpt>
      <trkpt lat="46.82682" lon="-0.87349">
        <ele>235</ele>
        <time>2022-05-04T07:43:41Z</time>
      </trkpt>
      <trkpt lat="46.82727" lon="-0.8739">
        <ele>232</ele>
        <time>2022-05-04T07:44:24Z</time>
      </trkpt>
      <trkpt lat="46.8273" lon="-0.87449">
        <ele>235</ele>
        <time>2022-05-04T07:44:56Z</time>
      </trkpt>
      <trkpt lat="46.82744" lon="-0.87515">
        <ele>236</ele>
        <time>2022-05-04T07:45:34Z</time>
      </trkpt>
      <trkpt lat="46.82772" lon="-0.87459">
        <ele>233</ele>
        <time>2022-05-04T07:46:12Z</time>
      </trkpt>
      <trkpt lat="46.82806" lon="-0.87408">
        <ele>233</ele>
        <time>2022-05-04T07:46:51Z</time>
      </trkpt>
      <trkpt lat="46.82832" lon="-0.87395">
        <ele>234</ele>
        <time>2022-05-04T07:47:13Z</time>
      </trkpt>
      <trkpt lat="46.8287" lon="-0.87449">
        <ele>236</ele>
        <time>2022-05-04T07:47:55Z</time>
      </trkpt>
    </trkseg>
  </trk>
</gpx>